SAVC/CRD METAR and TAF weather

Enter ICAO airport designator
Station Type Date Time Source
SAVC METAR 2020/01/21 09:00 UTC NOAA

SAVC 210900Z 27008KT CAVOK 20/10 Q1014


Station Type Date Time Source
SAVC Decoded METAR 2020/01/21 09:00 UTC NOAA

Comodoro Rivadavia Aerodrome, Argentina (SAVC) 45-47S 067-30W 46M
Jan 21, 2020 - 04:00 AM EST / 2020.01.21 0900 UTC
Wind: from the W (270 degrees) at 9 MPH (8 KT):0
Visibility: greater than 7 mile(s):0
Temperature: 68 F (20 C)
Dew Point: 50 F (10 C)
Relative Humidity: 52%
Pressure (altimeter): 29.94 in. Hg (1014 hPa)
ob: SAVC 210900Z 27008KT CAVOK 20/10 Q1014
cycle: 9

Station Type Date Time Source
SAVC TAF 2020/01/21 06:27 UTC NOAA

TAF TAF SAVC 210500Z 2106/2206 27005KT CAVOK TX31/2119Z TN20/2109Z
BECMG 2113/2115 05010KT
BECMG 2201/2203 18010KT

Example: see airport list